createdAt,value
2019-03-23T00:00:03.908Z,1030.18
2019-03-23T00:10:03.803Z,1030.15
2019-03-23T00:20:03.592Z,1030.15
2019-03-23T00:30:04.156Z,1030.16
2019-03-23T00:40:03.191Z,1030.00
2019-03-23T00:50:03.938Z,1029.96
2019-03-23T01:00:03.969Z,1029.96
2019-03-23T01:10:03.271Z,1029.91
2019-03-23T01:20:03.704Z,1029.92
2019-03-23T01:30:04.157Z,1029.88
2019-03-23T01:40:03.714Z,1029.84
2019-03-23T01:50:03.202Z,1029.80
2019-03-23T02:00:04.136Z,1029.81
2019-03-23T02:10:03.399Z,1029.87
2019-03-23T02:20:03.204Z,1029.81
2019-03-23T02:30:04.136Z,1029.77
2019-03-23T02:40:03.665Z,1029.77
2019-03-23T02:50:03.478Z,1029.70
2019-03-23T03:00:03.625Z,1029.70
2019-03-23T03:10:03.564Z,1029.63
2019-03-23T03:20:03.858Z,1029.57
2019-03-23T03:30:03.671Z,1029.55
2019-03-23T03:40:03.542Z,1029.57
2019-03-23T03:50:03.404Z,1029.67
2019-03-23T04:00:04.467Z,1029.67
2019-03-23T04:10:02.952Z,1029.72
2019-03-23T04:20:03.837Z,1029.76
2019-03-23T04:30:04.655Z,1029.82
2019-03-23T04:40:03.299Z,1029.83
2019-03-23T04:50:03.703Z,1029.92
2019-03-23T05:00:03.858Z,1029.93
2019-03-23T05:10:03.583Z,1029.99
2019-03-23T05:20:03.034Z,1030.07
2019-03-23T05:30:04.122Z,1030.15
2019-03-23T05:40:03.900Z,1030.09
2019-03-23T05:50:03.678Z,1030.16
2019-03-23T06:00:04.071Z,1030.13
2019-03-23T06:10:03.468Z,1030.08
2019-03-23T06:20:05.451Z,1030.10
2019-03-23T06:30:04.574Z,1030.10
2019-03-23T06:40:03.347Z,1030.16
2019-03-23T06:50:03.112Z,1030.08
2019-03-23T07:00:04.206Z,1030.02
2019-03-23T07:10:03.684Z,1030.10
2019-03-23T07:20:03.612Z,1030.17
2019-03-23T07:30:04.138Z,1030.12
2019-03-23T07:40:03.891Z,1029.99
2019-03-23T07:50:03.417Z,1029.88
2019-03-23T08:00:03.850Z,1029.98
2019-03-23T08:10:03.790Z,1029.92
2019-03-23T08:20:03.698Z,1029.95
2019-03-23T08:30:04.331Z,1029.99
2019-03-23T08:40:03.811Z,1029.90
2019-03-23T08:50:03.650Z,1029.97
2019-03-23T09:00:04.731Z,1029.83
2019-03-23T09:10:03.530Z,1029.85
2019-03-23T09:20:03.437Z,1029.78
2019-03-23T09:30:04.119Z,1029.79
2019-03-23T09:40:12.098Z,1029.73
2019-03-23T09:50:03.707Z,1029.65
2019-03-23T10:00:04.539Z,1029.56
2019-03-23T10:10:02.947Z,1029.47
2019-03-23T10:20:03.271Z,1029.34
2019-03-23T10:30:04.397Z,1029.27
2019-03-23T10:40:03.301Z,1029.29
2019-03-23T10:50:03.327Z,1029.12
2019-03-23T11:00:03.919Z,1029.11
2019-03-23T11:10:03.371Z,1029.00
2019-03-23T11:20:03.204Z,1028.94
2019-03-23T11:30:04.335Z,1028.85
2019-03-23T11:40:04.137Z,1028.72
2019-03-23T11:50:03.741Z,1028.62
2019-03-23T12:00:04.083Z,1028.50
2019-03-23T12:10:03.841Z,1028.39
2019-03-23T12:20:04.044Z,1028.45
2019-03-23T12:30:08.265Z,1028.41
2019-03-23T12:40:03.597Z,1028.27
2019-03-23T12:50:03.124Z,1028.15
2019-03-23T13:00:04.680Z,1028.13
2019-03-23T13:10:03.482Z,1028.01
2019-03-23T13:20:03.622Z,1027.96
2019-03-23T13:30:04.605Z,1027.95
2019-03-23T13:40:03.470Z,1027.77
2019-03-23T13:50:03.211Z,1027.69
2019-03-23T14:00:04.257Z,1027.67
2019-03-23T14:10:02.829Z,1027.66
2019-03-23T14:20:03.773Z,1027.58
2019-03-23T14:30:04.370Z,1027.56
2019-03-23T14:40:03.113Z,1027.49
2019-03-23T14:50:03.687Z,1027.47
2019-03-23T15:00:04.105Z,1027.48
2019-03-23T15:10:03.264Z,1027.51
2019-03-23T15:20:03.087Z,1027.48
2019-03-23T15:30:03.732Z,1027.46
2019-03-23T15:40:03.487Z,1027.37
2019-03-23T15:50:03.100Z,1027.39
2019-03-23T16:00:04.293Z,1027.35
2019-03-23T16:10:03.412Z,1027.24
2019-03-23T16:20:03.273Z,1027.32
2019-03-23T16:30:04.368Z,1027.37
2019-03-23T16:40:03.064Z,1027.35
2019-03-23T16:50:03.713Z,1027.34
2019-03-23T17:00:04.405Z,1027.41
2019-03-23T17:10:03.014Z,1027.42
2019-03-23T17:20:03.942Z,1027.46
2019-03-23T17:30:04.982Z,1027.52
2019-03-23T17:40:03.932Z,1027.54
2019-03-23T17:50:03.435Z,1027.61
2019-03-23T18:00:04.555Z,1027.62
2019-03-23T18:10:03.191Z,1027.77
2019-03-23T18:20:03.022Z,1027.87
2019-03-23T18:30:03.613Z,1027.97
2019-03-23T18:40:03.925Z,1028.04
2019-03-23T18:50:03.524Z,1028.17
2019-03-23T19:00:04.397Z,1028.29
2019-03-23T19:10:03.341Z,1028.33
2019-03-23T19:20:03.263Z,1028.38
2019-03-23T19:30:03.839Z,1028.34
2019-03-23T19:40:03.543Z,1028.42
2019-03-23T19:50:03.477Z,1028.49
2019-03-23T20:00:04.865Z,1028.48
2019-03-23T20:10:03.065Z,1028.45
2019-03-23T20:20:03.018Z,1028.49
2019-03-23T20:30:04.548Z,1028.49
2019-03-23T20:40:03.322Z,1028.48
2019-03-23T20:50:02.967Z,1028.48
2019-03-23T21:00:04.281Z,1028.48
2019-03-23T21:10:03.114Z,1028.49
2019-03-23T21:20:03.144Z,1028.38
2019-03-23T21:30:03.820Z,1028.37
2019-03-23T21:40:03.599Z,1028.26
2019-03-23T21:50:03.102Z,1028.28
2019-03-23T22:00:04.318Z,1028.27
2019-03-23T22:10:03.350Z,1028.21
2019-03-23T22:20:03.632Z,1028.15
2019-03-23T22:30:04.326Z,1028.12
2019-03-23T22:40:04.011Z,1028.06
2019-03-23T22:50:03.625Z,1028.06
2019-03-23T23:00:04.358Z,1027.93
2019-03-23T23:10:03.058Z,1027.89
2019-03-23T23:20:03.935Z,1027.69
2019-03-23T23:30:04.249Z,1027.60
2019-03-23T23:40:04.111Z,1027.56
2019-03-23T23:50:02.829Z,1027.51
